TimeEST,TemperatureF,Dew PointF,Humidity,Sea Level PressureIn,VisibilityMPH,Wind Direction,Wind SpeedMPH,Gust SpeedMPH,PrecipitationIn,Events,Conditions,WindDirDegrees,DateUTC
12:54 AM,59.0,52.0,78,30.12,10.0,SW,9.2,-,N/A,,Partly Cloudy,220,2012-12-05 05:54:00
1:54 AM,57.9,52.0,81,30.12,10.0,SW,9.2,-,N/A,,Scattered Clouds,220,2012-12-05 06:54:00
2:54 AM,57.9,53.1,84,30.12,10.0,SSW,6.9,-,N/A,,Overcast,210,2012-12-05 07:54:00
3:54 AM,57.9,53.1,84,30.10,10.0,WSW,10.4,-,N/A,,Overcast,240,2012-12-05 08:54:00
4:54 AM,57.9,53.1,84,30.10,10.0,WSW,8.1,-,N/A,,Overcast,240,2012-12-05 09:54:00
5:54 AM,57.9,53.1,84,30.10,10.0,SW,9.2,-,N/A,,Mostly Cloudy,230,2012-12-05 10:54:00
6:54 AM,57.9,53.1,84,30.12,10.0,WSW,8.1,-,0.00,Rain,Light Rain,240,2012-12-05 11:54:00
7:54 AM,57.0,54.0,89,30.13,10.0,SW,9.2,-,0.00,Rain,Light Rain,230,2012-12-05 12:54:00
9:54 AM,59.0,55.0,87,30.17,10.0,West,6.9,-,0.00,Rain,Light Rain,270,2012-12-05 14:54:00
10:54 AM,61.0,54.0,78,30.17,10.0,North,6.9,-,0.00,,Mostly Cloudy,360,2012-12-05 15:54:00
11:08 AM,60.8,53.6,77,30.18,10.0,North,6.9,-,N/A,,Mostly Cloudy,360,2012-12-05 16:08:00
11:48 AM,59.0,48.2,67,30.18,10.0,North,4.6,-,0.01,Rain,Light Rain,10,2012-12-05 16:48:00
11:54 AM,59.0,48.9,69,30.17,10.0,North,5.8,-,0.01,Rain,Light Rain,10,2012-12-05 16:54:00
12:54 PM,60.1,42.1,51,30.14,10.0,NNE,5.8,-,0.00,,Mostly Cloudy,20,2012-12-05 17:54:00
1:54 PM,60.1,39.9,47,30.14,10.0,North,5.8,-,N/A,,Mostly Cloudy,10,2012-12-05 18:54:00
2:54 PM,59.0,37.0,44,30.14,10.0,North,6.9,-,0.00,,Mostly Cloudy,10,2012-12-05 19:54:00
3:54 PM,59.0,34.0,39,30.14,10.0,NE,5.8,-,N/A,,Mostly Cloudy,40,2012-12-05 20:54:00
4:54 PM,57.9,33.1,39,30.16,10.0,NNE,3.5,-,N/A,,Mostly Cloudy,20,2012-12-05 21:54:00
5:54 PM,57.0,30.9,37,30.17,10.0,Calm,Calm,-,N/A,,Mostly Cloudy,0,2012-12-05 22:54:00
6:54 PM,54.0,30.0,40,30.18,10.0,Calm,Calm,-,N/A,,Partly Cloudy,0,2012-12-05 23:54:00
7:54 PM,52.0,27.0,38,30.19,10.0,North,4.6,-,N/A,,Partly Cloudy,10,2012-12-06 00:54:00
8:54 PM,50.0,24.1,36,30.20,10.0,NE,3.5,-,N/A,,Clear,40,2012-12-06 01:54:00
9:54 PM,48.0,24.1,39,30.20,10.0,NNE,4.6,-,N/A,,Clear,20,2012-12-06 02:54:00
10:54 PM,46.0,24.1,42,30.20,10.0,Calm,Calm,-,N/A,,Clear,0,2012-12-06 03:54:00
11:54 PM,44.1,24.1,45,30.19,10.0,North,4.6,-,N/A,,Clear,10,2012-12-06 04:54:00